createdAt,value
2022-08-19T00:02:18.680Z,23.00
2022-08-19T00:05:22.620Z,23.00
2022-08-19T00:08:25.322Z,23.00
2022-08-19T00:11:28.522Z,23.00
2022-08-19T00:14:34.140Z,22.25
2022-08-19T00:17:36.367Z,22.00
2022-08-19T00:20:44.075Z,22.75
2022-08-19T00:23:46.397Z,23.00
2022-08-19T00:26:48.401Z,22.00
2022-08-19T00:29:54.005Z,24.00
2022-08-19T00:32:56.117Z,22.25
2022-08-19T00:35:58.435Z,22.25
2022-08-19T00:39:01.141Z,22.75
2022-08-19T00:42:03.694Z,22.00
2022-08-19T00:45:15.143Z,23.00
2022-08-19T00:48:18.327Z,22.25
2022-08-19T00:51:20.662Z,22.50
2022-08-19T00:54:28.248Z,22.50
2022-08-19T00:57:40.170Z,22.00
2022-08-19T01:00:42.510Z,23.25
2022-08-19T01:03:57.615Z,23.00
2022-08-19T01:07:01.017Z,22.25
2022-08-19T01:10:06.847Z,21.00
2022-08-19T01:13:14.282Z,22.75
2022-08-19T01:16:18.410Z,23.25
2022-08-19T01:19:29.034Z,22.75
2022-08-19T01:22:40.628Z,22.00
2022-08-19T01:25:50.152Z,22.75
2022-08-19T01:28:57.397Z,22.00
2022-08-19T01:32:02.239Z,22.50
2022-08-19T01:35:05.561Z,23.00
2022-08-19T01:38:11.620Z,22.00
2022-08-19T01:41:14.792Z,23.25
2022-08-19T01:44:19.255Z,23.00
2022-08-19T01:47:21.530Z,23.50
2022-08-19T01:50:23.885Z,23.75
2022-08-19T01:53:26.721Z,24.00
2022-08-19T01:56:36.065Z,23.50
2022-08-19T01:59:38.496Z,22.25
2022-08-19T02:02:40.771Z,23.50
2022-08-19T02:05:46.732Z,24.25
2022-08-19T02:08:50.102Z,23.00
2022-08-19T02:11:54.362Z,22.25
2022-08-19T02:14:56.750Z,24.25
2022-08-19T02:17:59.301Z,24.00
2022-08-19T02:21:01.566Z,24.25
2022-08-19T02:24:04.231Z,22.75
2022-08-19T02:27:06.963Z,21.25
2022-08-19T02:30:13.914Z,26.50
2022-08-19T02:33:17.093Z,23.75
2022-08-19T02:36:20.652Z,24.00
2022-08-19T02:39:23.651Z,24.00
2022-08-19T02:42:25.781Z,25.00
2022-08-19T02:45:28.183Z,24.75
2022-08-19T02:48:30.293Z,23.75
2022-08-19T02:51:39.531Z,24.25
2022-08-19T02:54:41.592Z,24.50
2022-08-19T02:57:43.976Z,24.75
2022-08-19T03:00:51.758Z,24.75
2022-08-19T03:03:54.625Z,26.25
2022-08-19T03:07:00.704Z,25.00
2022-08-19T03:10:05.995Z,24.00
2022-08-19T03:13:08.945Z,25.00
2022-08-19T03:16:12.590Z,25.00
2022-08-19T03:19:17.181Z,25.25
2022-08-19T03:22:19.421Z,25.50
2022-08-19T03:25:22.924Z,25.50
2022-08-19T03:28:25.320Z,23.50
2022-08-19T03:31:43.423Z,25.25
2022-08-19T03:34:48.862Z,24.75
2022-08-19T03:37:51.852Z,25.00
2022-08-19T03:40:54.105Z,25.00
2022-08-19T03:43:56.247Z,25.50
2022-08-19T03:47:00.274Z,24.00
2022-08-19T03:50:03.119Z,25.25
2022-08-19T03:53:05.327Z,25.00
2022-08-19T03:56:10.566Z,24.50
2022-08-19T03:59:17.181Z,23.50
2022-08-19T04:02:19.345Z,25.50
2022-08-19T04:05:21.610Z,25.00
2022-08-19T04:08:29.720Z,27.00
2022-08-19T04:11:43.271Z,25.00
2022-08-19T04:14:46.716Z,25.00
2022-08-19T04:17:48.952Z,23.00
2022-08-19T04:20:50.983Z,24.00
2022-08-19T04:23:54.421Z,25.75
2022-08-19T04:26:57.977Z,23.75
2022-08-19T04:30:00.209Z,24.00
2022-08-19T04:33:02.275Z,23.50
2022-08-19T04:36:04.649Z,24.25
2022-08-19T04:39:10.049Z,24.00
2022-08-19T04:42:31.562Z,25.00
2022-08-19T04:45:39.561Z,24.75
2022-08-19T04:48:49.418Z,25.00
2022-08-19T04:51:55.102Z,25.00
2022-08-19T04:54:57.272Z,24.00
2022-08-19T04:57:59.361Z,23.75
2022-08-19T05:01:02.516Z,25.00
2022-08-19T05:04:06.452Z,23.50
2022-08-19T05:07:10.815Z,25.00
2022-08-19T05:10:13.737Z,23.00
2022-08-19T05:13:18.033Z,25.00
2022-08-19T05:16:21.688Z,20.25
2022-08-19T05:19:42.800Z,22.75
2022-08-19T05:22:46.244Z,23.75
2022-08-19T05:25:48.607Z,22.00
2022-08-19T05:28:54.505Z,23.25
2022-08-19T05:31:57.241Z,23.25
2022-08-19T05:34:59.323Z,22.25
2022-08-19T05:38:01.648Z,22.25
2022-08-19T05:41:11.621Z,22.00
2022-08-19T05:44:15.077Z,21.75
2022-08-19T05:47:17.746Z,22.00
2022-08-19T05:50:20.218Z,21.75
2022-08-19T05:53:22.322Z,22.25
2022-08-19T05:56:25.085Z,21.67
2022-08-19T05:59:27.146Z,21.00
2022-08-19T06:02:31.823Z,22.00
2022-08-19T06:05:34.179Z,20.00
2022-08-19T06:08:52.073Z,22.00
2022-08-19T06:11:59.236Z,21.33
2022-08-19T06:15:08.332Z,21.00
2022-08-19T06:18:14.540Z,21.67
2022-08-19T06:21:16.823Z,20.00
2022-08-19T06:24:23.948Z,19.67
2022-08-19T06:27:26.265Z,22.00
2022-08-19T06:30:28.551Z,22.00
2022-08-19T06:33:31.034Z,21.33
2022-08-19T06:36:36.997Z,19.67
2022-08-19T06:39:41.453Z,14.33
2022-08-19T06:42:45.221Z,19.67
2022-08-19T06:45:57.713Z,19.33
2022-08-19T06:49:01.403Z,20.00
2022-08-19T06:52:05.411Z,21.00
2022-08-19T06:55:07.892Z,20.00
2022-08-19T06:58:10.397Z,22.33
2022-08-19T07:01:12.540Z,19.00
2022-08-19T07:04:17.560Z,19.00
2022-08-19T07:07:22.122Z,18.00
2022-08-19T07:10:24.861Z,18.67
2022-08-19T07:13:27.970Z,16.33
2022-08-19T07:16:30.666Z,18.00
2022-08-19T07:19:33.908Z,20.00
2022-08-19T07:22:36.644Z,19.00
2022-08-19T07:25:39.318Z,17.00
2022-08-19T07:28:51.299Z,18.67
2022-08-19T07:32:00.094Z,18.00
2022-08-19T07:35:04.426Z,18.67
2022-08-19T07:38:06.453Z,18.67
2022-08-19T07:41:12.195Z,17.00
2022-08-19T07:44:15.590Z,18.00
2022-08-19T07:47:48.905Z,17.67
2022-08-19T07:50:41.089Z,18.00
2022-08-19T07:53:45.755Z,18.67
2022-08-19T07:56:47.898Z,17.67
2022-08-19T07:59:50.149Z,19.00
2022-08-19T08:02:55.691Z,18.33
2022-08-19T08:06:17.312Z,18.33
2022-08-19T08:09:25.489Z,18.25
2022-08-19T08:12:34.949Z,17.00
2022-08-19T08:15:42.711Z,17.33
2022-08-19T08:18:50.579Z,19.00
2022-08-19T08:21:57.219Z,19.00
2022-08-19T08:25:04.174Z,19.00
2022-08-19T08:28:11.320Z,17.75
2022-08-19T08:31:13.848Z,19.00
2022-08-19T08:34:16.113Z,17.25
2022-08-19T08:37:18.544Z,19.00
2022-08-19T08:40:45.428Z,16.25
2022-08-19T08:43:52.158Z,19.00
2022-08-19T08:46:58.072Z,19.00
2022-08-19T08:50:07.807Z,18.25
2022-08-19T08:53:12.231Z,17.50
2022-08-19T08:56:16.999Z,19.00
2022-08-19T08:59:35.799Z,19.00
2022-08-19T09:02:39.030Z,20.00
2022-08-19T09:06:06.164Z,17.25
2022-08-19T09:09:33.518Z,17.25
2022-08-19T09:12:43.086Z,19.00
2022-08-19T09:15:51.364Z,16.00
2022-08-19T09:18:56.024Z,18.00
2022-08-19T09:22:01.334Z,18.00
2022-08-19T09:25:05.850Z,19.00
2022-08-19T09:28:12.649Z,17.25
2022-08-19T09:31:28.980Z,17.00
2022-08-19T09:34:31.633Z,16.00
2022-08-19T09:37:41.077Z,18.00
2022-08-19T09:40:43.418Z,18.00
2022-08-19T09:43:47.952Z,16.50
2022-08-19T09:46:51.837Z,18.75
2022-08-19T09:49:53.887Z,19.00
2022-08-19T09:52:57.530Z,17.75
2022-08-19T09:55:59.987Z,18.00
2022-08-19T09:59:04.098Z,18.50
2022-08-19T10:02:10.850Z,17.75
2022-08-19T10:05:31.955Z,18.75
2022-08-19T10:08:37.423Z,18.50
2022-08-19T10:11:54.598Z,18.50
2022-08-19T10:14:57.330Z,18.75
2022-08-19T10:18:00.751Z,19.50
2022-08-19T10:21:11.492Z,19.00
2022-08-19T10:24:14.051Z,18.75
2022-08-19T10:27:16.191Z,19.00
2022-08-19T10:30:20.141Z,17.60
2022-08-19T10:33:38.717Z,18.75
2022-08-19T10:36:56.052Z,19.00
2022-08-19T10:39:58.894Z,17.60
2022-08-19T10:43:01.250Z,19.00
2022-08-19T10:46:03.359Z,18.75
2022-08-19T10:49:06.855Z,17.00
2022-08-19T10:52:32.515Z,18.40
2022-08-19T10:55:54.240Z,17.00
2022-08-19T10:58:57.736Z,16.00
2022-08-19T11:02:01.877Z,15.80
2022-08-19T11:05:05.174Z,16.20
2022-08-19T11:08:23.370Z,16.80
2022-08-19T11:11:26.243Z,16.50
2022-08-19T11:14:32.111Z,15.60
2022-08-19T11:17:37.190Z,17.80
2022-08-19T11:20:39.857Z,16.00
2022-08-19T11:23:42.492Z,13.60
2022-08-19T11:26:45.734Z,15.00
2022-08-19T11:29:48.546Z,15.20
2022-08-19T11:32:50.909Z,16.20
2022-08-19T11:35:54.545Z,17.60
2022-08-19T11:38:57.221Z,15.40
2022-08-19T11:42:00.182Z,16.60
2022-08-19T11:45:04.119Z,13.40
2022-08-19T11:48:06.197Z,15.00
2022-08-19T11:51:12.483Z,15.20
2022-08-19T11:54:17.169Z,13.40
2022-08-19T11:57:20.759Z,14.80
2022-08-19T12:00:23.582Z,15.00
2022-08-19T12:03:26.362Z,14.20
2022-08-19T12:06:31.090Z,13.40
2022-08-19T12:09:35.482Z,14.40
2022-08-19T12:12:41.437Z,14.00
2022-08-19T12:15:44.022Z,15.40
2022-08-19T12:18:47.435Z,14.80
2022-08-19T12:21:50.641Z,16.20
2022-08-19T12:24:54.744Z,14.20
2022-08-19T12:27:57.924Z,14.20
2022-08-19T12:31:00.608Z,15.80
2022-08-19T12:34:09.368Z,12.80
2022-08-19T12:37:12.010Z,13.80
2022-08-19T12:40:16.499Z,15.80
2022-08-19T12:43:21.330Z,14.20
2022-08-19T12:46:26.076Z,13.20
2022-08-19T12:49:52.386Z,12.80
2022-08-19T12:52:59.110Z,15.60
2022-08-19T12:56:01.777Z,14.20
2022-08-19T12:59:05.790Z,13.80
2022-08-19T13:02:09.090Z,12.80
2022-08-19T13:05:15.265Z,14.20
2022-08-19T13:08:18.179Z,13.60
2022-08-19T13:11:25.304Z,12.80
2022-08-19T13:14:27.601Z,13.40
2022-08-19T13:17:30.116Z,14.80
2022-08-19T13:20:33.634Z,14.40
2022-08-19T13:23:36.879Z,14.60
2022-08-19T13:26:39.335Z,14.00
2022-08-19T13:30:01.359Z,14.60
2022-08-19T13:33:12.831Z,13.80
2022-08-19T13:36:18.438Z,13.00
2022-08-19T13:39:21.568Z,11.40
2022-08-19T13:42:26.744Z,13.80
2022-08-19T13:45:32.190Z,13.20
2022-08-19T13:48:35.238Z,12.40
2022-08-19T13:51:40.798Z,13.80
2022-08-19T13:54:45.126Z,13.60
2022-08-19T13:57:47.467Z,12.00
2022-08-19T14:00:50.956Z,13.40
2022-08-19T14:03:53.979Z,11.60
2022-08-19T14:06:56.666Z,12.20
2022-08-19T14:09:59.016Z,12.00
2022-08-19T14:13:03.667Z,12.00
2022-08-19T14:16:11.583Z,13.00
2022-08-19T14:19:14.441Z,13.20
2022-08-19T14:22:22.042Z,13.60
2022-08-19T14:25:27.611Z,14.50
2022-08-19T14:28:31.181Z,10.80
2022-08-19T14:31:33.693Z,13.80
2022-08-19T14:34:38.291Z,14.00
2022-08-19T14:37:45.797Z,12.20
2022-08-19T14:40:49.965Z,12.40
2022-08-19T14:43:54.183Z,14.00
2022-08-19T14:46:56.497Z,12.80
2022-08-19T14:50:00.314Z,13.00
2022-08-19T14:53:12.662Z,12.00
2022-08-19T14:56:17.565Z,12.80
2022-08-19T14:59:19.778Z,12.40
2022-08-19T15:02:34.448Z,13.20
2022-08-19T15:05:37.629Z,13.00
2022-08-19T15:08:45.940Z,12.40
2022-08-19T15:11:49.944Z,13.60
2022-08-19T15:14:53.656Z,13.40
2022-08-19T15:18:03.310Z,12.00
2022-08-19T15:21:06.572Z,14.40
2022-08-19T15:24:10.386Z,12.40
2022-08-19T15:27:13.871Z,11.60
2022-08-19T15:30:22.241Z,11.00
2022-08-19T15:33:25.024Z,12.80
2022-08-19T15:36:28.396Z,13.25
2022-08-19T15:39:31.555Z,12.50
2022-08-19T15:42:34.276Z,11.20
2022-08-19T15:45:36.707Z,11.40
2022-08-19T15:48:39.063Z,11.00
2022-08-19T15:51:43.677Z,12.00
2022-08-19T15:54:45.891Z,12.00
2022-08-19T15:58:06.861Z,11.80
2022-08-19T16:01:28.495Z,12.00
2022-08-19T16:04:49.751Z,12.60
2022-08-19T16:07:52.096Z,11.75
2022-08-19T16:10:55.184Z,12.00
2022-08-19T16:13:59.167Z,12.00
2022-08-19T16:17:02.166Z,10.50
2022-08-19T16:20:07.271Z,10.50
2022-08-19T16:23:10.271Z,11.00
2022-08-19T16:26:13.460Z,12.75
2022-08-19T16:29:33.465Z,10.00
2022-08-19T16:32:37.183Z,11.00
2022-08-19T16:35:39.622Z,11.00
2022-08-19T16:38:41.826Z,11.25
2022-08-19T16:41:46.020Z,12.75
2022-08-19T16:44:48.226Z,9.75
2022-08-19T16:47:50.850Z,9.75
2022-08-19T16:50:53.403Z,11.00
2022-08-19T16:53:56.102Z,10.75
2022-08-19T16:56:59.790Z,10.25
2022-08-19T17:00:09.722Z,10.00
2022-08-19T17:03:15.114Z,10.50
2022-08-19T17:06:21.093Z,9.50
2022-08-19T17:09:26.003Z,13.25
2022-08-19T17:12:31.919Z,11.50
2022-08-19T17:15:34.961Z,11.75
2022-08-19T17:18:37.487Z,9.00
2022-08-19T17:21:40.773Z,11.00
2022-08-19T17:24:43.144Z,12.00
2022-08-19T17:27:45.514Z,8.75
2022-08-19T17:30:48.285Z,7.00
2022-08-19T17:33:51.360Z,9.75
2022-08-19T17:36:56.767Z,10.00
2022-08-19T17:39:59.028Z,10.75
2022-08-19T17:43:02.796Z,10.00
2022-08-19T17:46:05.721Z,12.00
2022-08-19T17:49:08.123Z,11.00
2022-08-19T17:52:11.163Z,9.00
2022-08-19T17:55:13.967Z,9.33
2022-08-19T17:58:16.665Z,9.00
2022-08-19T18:01:22.024Z,11.33
2022-08-19T18:04:27.200Z,13.00
2022-08-19T18:07:30.466Z,10.00
2022-08-19T18:10:34.994Z,11.00
2022-08-19T18:13:38.342Z,12.00
2022-08-19T18:16:40.501Z,11.33
2022-08-19T18:19:44.460Z,11.67
2022-08-19T18:22:48.711Z,12.00
2022-08-19T18:25:51.102Z,11.67
2022-08-19T18:28:54.159Z,10.33
2022-08-19T18:31:57.849Z,12.33
2022-08-19T18:35:02.062Z,10.33
2022-08-19T18:38:27.455Z,12.33
2022-08-19T18:41:48.429Z,11.00
2022-08-19T18:45:09.688Z,11.00
2022-08-19T18:48:30.281Z,12.00
2022-08-19T18:51:33.290Z,11.67
2022-08-19T18:54:36.893Z,11.33
2022-08-19T18:57:39.230Z,11.00
2022-08-19T19:00:41.962Z,9.00
2022-08-19T19:03:48.080Z,11.67
2022-08-19T19:06:50.398Z,12.33
2022-08-19T19:09:52.734Z,11.33
2022-08-19T19:12:54.958Z,10.33
2022-08-19T19:15:57.500Z,11.00
2022-08-19T19:18:59.947Z,11.33
2022-08-19T19:22:03.607Z,12.00
2022-08-19T19:25:06.617Z,11.00
2022-08-19T19:28:09.973Z,11.00
2022-08-19T19:31:22.692Z,9.33
2022-08-19T19:34:29.483Z,12.33
2022-08-19T19:37:32.997Z,10.00
2022-08-19T19:40:35.406Z,9.00
2022-08-19T19:43:40.882Z,12.67
2022-08-19T19:46:43.983Z,12.00
2022-08-19T19:50:12.770Z,11.00
2022-08-19T19:53:10.201Z,12.00
2022-08-19T19:56:13.259Z,12.00
2022-08-19T19:59:18.673Z,10.00
2022-08-19T20:02:22.129Z,11.00
2022-08-19T20:05:25.746Z,10.00
2022-08-19T20:08:46.949Z,13.00
2022-08-19T20:11:56.064Z,12.33
2022-08-19T20:15:02.133Z,13.67
2022-08-19T20:18:05.934Z,11.33
2022-08-19T20:21:12.467Z,11.33
2022-08-19T20:24:20.937Z,11.33
2022-08-19T20:27:27.565Z,12.00
2022-08-19T20:30:56.992Z,9.33
2022-08-19T20:34:25.729Z,10.67
2022-08-19T20:37:36.748Z,12.00
2022-08-19T20:41:06.330Z,11.67
2022-08-19T20:44:13.647Z,12.33
2022-08-19T20:47:16.103Z,11.67
2022-08-19T20:50:18.899Z,12.00
2022-08-19T20:53:27.235Z,13.33
2022-08-19T20:56:29.757Z,11.33
2022-08-19T20:59:37.213Z,11.33
2022-08-19T21:02:42.467Z,10.33
2022-08-19T21:05:47.946Z,11.33
2022-08-19T21:08:51.079Z,9.00
2022-08-19T21:11:54.555Z,9.00
2022-08-19T21:14:56.892Z,12.33
2022-08-19T21:18:01.893Z,12.33
2022-08-19T21:21:04.577Z,12.00
2022-08-19T21:24:06.942Z,12.00
2022-08-19T21:27:09.343Z,12.00
2022-08-19T21:30:12.324Z,11.33
2022-08-19T21:33:15.207Z,11.00
2022-08-19T21:36:18.545Z,12.67
2022-08-19T21:39:20.973Z,11.00
2022-08-19T21:42:24.081Z,11.00
2022-08-19T21:45:36.239Z,11.00
2022-08-19T21:48:38.391Z,11.00
2022-08-19T21:51:40.914Z,12.00
2022-08-19T21:54:43.061Z,10.00
2022-08-19T21:57:45.533Z,10.33
2022-08-19T22:00:47.769Z,11.00
2022-08-19T22:03:50.335Z,11.00
2022-08-19T22:06:52.525Z,12.67
2022-08-19T22:09:55.040Z,12.67
2022-08-19T22:12:57.988Z,12.00
2022-08-19T22:16:00.457Z,10.67
2022-08-19T22:19:02.748Z,13.33
2022-08-19T22:22:05.159Z,12.00
2022-08-19T22:25:13.498Z,10.67
2022-08-19T22:29:01.248Z,11.33
2022-08-19T22:32:26.231Z,12.00
2022-08-19T22:35:31.357Z,11.67
2022-08-19T22:38:34.527Z,10.00
2022-08-19T22:41:37.643Z,10.67
2022-08-19T22:44:39.769Z,12.67
2022-08-19T22:47:43.198Z,11.33
2022-08-19T22:51:06.827Z,15.00
2022-08-19T22:54:09.483Z,13.00
2022-08-19T22:57:11.719Z,12.00
2022-08-19T23:00:14.961Z,13.33
2022-08-19T23:03:17.138Z,14.00
2022-08-19T23:06:19.589Z,11.67
2022-08-19T23:09:23.324Z,14.00
2022-08-19T23:12:31.473Z,12.00
2022-08-19T23:15:35.159Z,13.67
2022-08-19T23:18:37.502Z,11.00
2022-08-19T23:21:41.903Z,13.67
2022-08-19T23:24:44.377Z,13.00
2022-08-19T23:28:05.227Z,12.67
2022-08-19T23:31:08.374Z,12.33
2022-08-19T23:34:11.254Z,11.67
2022-08-19T23:37:13.819Z,13.00
2022-08-19T23:40:17.270Z,12.00
2022-08-19T23:43:25.039Z,13.00
2022-08-19T23:46:28.482Z,14.33
2022-08-19T23:49:31.421Z,12.33
2022-08-19T23:52:35.147Z,12.33
2022-08-19T23:55:40.415Z,12.00
2022-08-19T23:58:42.531Z,12.00
